sensor_id;sensor_type;location;lat;lon;timestamp;pressure;altitude;pressure_sealevel;temperature;humidity
68376;BME280;55318;52.068;5.188;2022-08-19T00:01:22;101445.0;;;18.47;93.55
68376;BME280;55318;52.068;5.188;2022-08-19T00:02:59;101447.0;;;18.46;93.3
68376;BME280;55318;52.068;5.188;2022-08-19T00:06:12;101439.0;;;18.47;93.47
68376;BME280;55318;52.068;5.188;2022-08-19T00:07:50;101443.0;;;18.46;93.27
68376;BME280;55318;52.068;5.188;2022-08-19T00:09:27;101442.0;;;18.45;93.75
68376;BME280;55318;52.068;5.188;2022-08-19T00:12:41;101443.0;;;18.41;95.0
68376;BME280;55318;52.068;5.188;2022-08-19T00:14:18;101446.0;;;18.43;94.43
68376;BME280;55318;52.068;5.188;2022-08-19T00:15:55;101450.0;;;18.41;94.15
68376;BME280;55318;52.068;5.188;2022-08-19T00:17:31;101455.0;;;18.43;94.14
68376;BME280;55318;52.068;5.188;2022-08-19T00:20:45;101455.0;;;18.41;93.74
68376;BME280;55318;52.068;5.188;2022-08-19T00:22:21;101451.0;;;18.34;94.55
68376;BME280;55318;52.068;5.188;2022-08-19T00:23:58;101452.0;;;18.32;93.91
68376;BME280;55318;52.068;5.188;2022-08-19T00:27:12;101451.0;;;18.3;94.38
68376;BME280;55318;52.068;5.188;2022-08-19T00:28:49;101451.0;;;18.31;93.64
68376;BME280;55318;52.068;5.188;2022-08-19T00:30:28;101450.0;;;18.28;93.75
68376;BME280;55318;52.068;5.188;2022-08-19T00:33:41;101446.0;;;18.27;94.32
68376;BME280;55318;52.068;5.188;2022-08-19T00:35:18;101446.0;;;18.27;94.31
68376;BME280;55318;52.068;5.188;2022-08-19T00:36:55;101443.0;;;18.25;93.42
68376;BME280;55318;52.068;5.188;2022-08-19T00:38:32;101445.0;;;18.27;93.62
68376;BME280;55318;52.068;5.188;2022-08-19T00:41:50;101446.0;;;18.28;93.41
68376;BME280;55318;52.068;5.188;2022-08-19T00:43:27;101440.0;;;18.3;94.71
68376;BME280;55318;52.068;5.188;2022-08-19T00:45:10;101436.0;;;18.27;94.62
68376;BME280;55318;52.068;5.188;2022-08-19T00:46:49;101436.0;;;18.23;94.68
68376;BME280;55318;52.068;5.188;2022-08-19T00:50:03;101439.0;;;18.18;95.66
68376;BME280;55318;52.068;5.188;2022-08-19T00:51:41;101441.0;;;18.2;94.5
68376;BME280;55318;52.068;5.188;2022-08-19T00:53:23;101445.0;;;18.18;94.03
68376;BME280;55318;52.068;5.188;2022-08-19T00:56:44;101441.0;;;18.16;93.84
68376;BME280;55318;52.068;5.188;2022-08-19T00:58:26;101442.0;;;18.11;94.65
68376;BME280;55318;52.068;5.188;2022-08-19T01:00:08;101440.0;;;18.14;94.15
68376;BME280;55318;52.068;5.188;2022-08-19T01:01:46;101439.0;;;18.12;93.8
68376;BME280;55318;52.068;5.188;2022-08-19T01:05:03;101437.0;;;18.12;93.97
68376;BME280;55318;52.068;5.188;2022-08-19T01:06:41;101436.0;;;18.11;93.48
68376;BME280;55318;52.068;5.188;2022-08-19T01:08:18;101432.0;;;18.05;94.2
68376;BME280;55318;52.068;5.188;2022-08-19T01:09:55;101437.0;;;18.09;94.6
68376;BME280;55318;52.068;5.188;2022-08-19T01:13:20;101436.0;;;18.09;93.75
68376;BME280;55318;52.068;5.188;2022-08-19T01:14:59;101438.0;;;18.09;93.67
68376;BME280;55318;52.068;5.188;2022-08-19T01:16:36;101433.0;;;18.05;93.35
68376;BME280;55318;52.068;5.188;2022-08-19T01:18:16;101433.0;;;18.02;93.75
68376;BME280;55318;52.068;5.188;2022-08-19T01:21:34;101431.0;;;18.02;94.01
68376;BME280;55318;52.068;5.188;2022-08-19T01:23:20;101430.0;;;18.02;93.64
68376;BME280;55318;52.068;5.188;2022-08-19T01:24:56;101430.0;;;18.02;93.31
68376;BME280;55318;52.068;5.188;2022-08-19T01:26:38;101427.0;;;18.0;94.29
68376;BME280;55318;52.068;5.188;2022-08-19T01:29:56;101426.0;;;17.97;94.15
68376;BME280;55318;52.068;5.188;2022-08-19T01:31:31;101434.0;;;18.0;93.52
68376;BME280;55318;52.068;5.188;2022-08-19T01:33:07;101438.0;;;18.0;93.43
68376;BME280;55318;52.068;5.188;2022-08-19T01:36:25;101439.0;;;17.97;94.28
68376;BME280;55318;52.068;5.188;2022-08-19T01:38:09;101446.0;;;17.95;94.74
68376;BME280;55318;52.068;5.188;2022-08-19T01:39:46;101446.0;;;17.95;93.98
68376;BME280;55318;52.068;5.188;2022-08-19T01:41:23;101448.0;;;17.87;94.25
68376;BME280;55318;52.068;5.188;2022-08-19T01:44:38;101453.0;;;17.84;94.28
68376;BME280;55318;52.068;5.188;2022-08-19T01:46:15;101451.0;;;17.88;93.98
68376;BME280;55318;52.068;5.188;2022-08-19T01:47:52;101452.0;;;17.88;94.9
68376;BME280;55318;52.068;5.188;2022-08-19T01:51:06;101448.0;;;17.86;94.23
68376;BME280;55318;52.068;5.188;2022-08-19T01:52:45;101450.0;;;17.86;95.74
68376;BME280;55318;52.068;5.188;2022-08-19T01:54:23;101449.0;;;17.86;94.65
68376;BME280;55318;52.068;5.188;2022-08-19T01:56:01;101449.0;;;17.8;94.85
68376;BME280;55318;52.068;5.188;2022-08-19T01:59:21;101453.0;;;17.79;95.53
68376;BME280;55318;52.068;5.188;2022-08-19T02:01:00;101455.0;;;17.81;95.5
68376;BME280;55318;52.068;5.188;2022-08-19T02:02:36;101455.0;;;17.77;95.88
68376;BME280;55318;52.068;5.188;2022-08-19T02:04:12;101452.0;;;17.72;95.69
68376;BME280;55318;52.068;5.188;2022-08-19T02:07:32;101455.0;;;17.75;95.36
68376;BME280;55318;52.068;5.188;2022-08-19T02:09:09;101452.0;;;17.72;95.02
68376;BME280;55318;52.068;5.188;2022-08-19T02:10:46;101448.0;;;17.7;94.85
68376;BME280;55318;52.068;5.188;2022-08-19T02:13:59;101448.0;;;17.68;94.94
68376;BME280;55318;52.068;5.188;2022-08-19T02:15:37;101452.0;;;17.68;95.11
68376;BME280;55318;52.068;5.188;2022-08-19T02:17:14;101453.0;;;17.68;95.29
68376;BME280;55318;52.068;5.188;2022-08-19T02:18:50;101452.0;;;17.7;95.09
68376;BME280;55318;52.068;5.188;2022-08-19T02:22:04;101449.0;;;17.68;95.48
68376;BME280;55318;52.068;5.188;2022-08-19T02:23:40;101446.0;;;17.64;96.45
68376;BME280;55318;52.068;5.188;2022-08-19T02:25:16;101443.0;;;17.66;95.88
68376;BME280;55318;52.068;5.188;2022-08-19T02:28:29;101438.0;;;17.61;95.33
68376;BME280;55318;52.068;5.188;2022-08-19T02:30:08;101442.0;;;17.68;94.99
68376;BME280;55318;52.068;5.188;2022-08-19T02:31:47;101447.0;;;17.63;94.99
68376;BME280;55318;52.068;5.188;2022-08-19T02:35:00;101451.0;;;17.61;94.81
68376;BME280;55318;52.068;5.188;2022-08-19T02:36:36;101455.0;;;17.55;94.54
68376;BME280;55318;52.068;5.188;2022-08-19T02:38:29;101455.0;;;17.54;94.57
68376;BME280;55318;52.068;5.188;2022-08-19T02:40:06;101458.0;;;17.55;94.24
68376;BME280;55318;52.068;5.188;2022-08-19T02:43:21;101458.0;;;17.52;94.42
68376;BME280;55318;52.068;5.188;2022-08-19T02:44:58;101460.0;;;17.5;94.11
68376;BME280;55318;52.068;5.188;2022-08-19T02:46:35;101461.0;;;17.47;94.57
68376;BME280;55318;52.068;5.188;2022-08-19T02:48:11;101459.0;;;17.45;94.6
68376;BME280;55318;52.068;5.188;2022-08-19T02:51:28;101450.0;;;17.41;94.56
68376;BME280;55318;52.068;5.188;2022-08-19T02:53:08;101446.0;;;17.41;94.6
68376;BME280;55318;52.068;5.188;2022-08-19T02:54:46;101438.0;;;17.37;94.81
68376;BME280;55318;52.068;5.188;2022-08-19T02:58:00;101433.0;;;17.36;94.31
68376;BME280;55318;52.068;5.188;2022-08-19T02:59:36;101435.0;;;17.36;93.9
68376;BME280;55318;52.068;5.188;2022-08-19T03:01:21;101437.0;;;17.36;94.09
68376;BME280;55318;52.068;5.188;2022-08-19T03:02:57;101439.0;;;17.38;94.86
68376;BME280;55318;52.068;5.188;2022-08-19T03:06:12;101441.0;;;17.37;94.56
68376;BME280;55318;52.068;5.188;2022-08-19T03:07:49;101444.0;;;17.43;93.99
68376;BME280;55318;52.068;5.188;2022-08-19T03:09:27;101441.0;;;17.37;94.39
68376;BME280;55318;52.068;5.188;2022-08-19T03:12:40;101437.0;;;17.38;94.69
68376;BME280;55318;52.068;5.188;2022-08-19T03:14:18;101437.0;;;17.36;94.55
68376;BME280;55318;52.068;5.188;2022-08-19T03:15:54;101436.0;;;17.38;94.49
68376;BME280;55318;52.068;5.188;2022-08-19T03:17:31;101434.0;;;17.34;94.07
68376;BME280;55318;52.068;5.188;2022-08-19T03:20:44;101430.0;;;17.29;94.99
68376;BME280;55318;52.068;5.188;2022-08-19T03:22:21;101430.0;;;17.3;95.53
68376;BME280;55318;52.068;5.188;2022-08-19T03:24:02;101435.0;;;17.27;95.98
68376;BME280;55318;52.068;5.188;2022-08-19T03:27:24;101432.0;;;17.27;95.06
68376;BME280;55318;52.068;5.188;2022-08-19T03:29:03;101426.0;;;17.25;94.87
68376;BME280;55318;52.068;5.188;2022-08-19T03:30:42;101428.0;;;17.25;94.7
68376;BME280;55318;52.068;5.188;2022-08-19T03:32:19;101430.0;;;17.2;94.94
68376;BME280;55318;52.068;5.188;2022-08-19T03:35:31;101428.0;;;17.27;94.37
68376;BME280;55318;52.068;5.188;2022-08-19T03:37:09;101428.0;;;17.23;94.18
68376;BME280;55318;52.068;5.188;2022-08-19T03:38:50;101424.0;;;17.2;94.54
68376;BME280;55318;52.068;5.188;2022-08-19T03:40:30;101423.0;;;17.16;94.3
68376;BME280;55318;52.068;5.188;2022-08-19T03:43:47;101428.0;;;17.13;95.45
68376;BME280;55318;52.068;5.188;2022-08-19T03:45:23;101428.0;;;17.2;95.71
68376;BME280;55318;52.068;5.188;2022-08-19T03:47:00;101431.0;;;17.14;95.59
68376;BME280;55318;52.068;5.188;2022-08-19T03:50:15;101432.0;;;17.12;94.63
68376;BME280;55318;52.068;5.188;2022-08-19T03:51:53;101431.0;;;17.11;95.44
68376;BME280;55318;52.068;5.188;2022-08-19T03:53:31;101434.0;;;17.13;94.45
68376;BME280;55318;52.068;5.188;2022-08-19T03:55:08;101431.0;;;17.13;95.19
68376;BME280;55318;52.068;5.188;2022-08-19T03:58:25;101422.0;;;17.14;95.3
68376;BME280;55318;52.068;5.188;2022-08-19T04:00:05;101420.0;;;17.18;95.41
68376;BME280;55318;52.068;5.188;2022-08-19T04:01:42;101427.0;;;17.21;95.2
68376;BME280;55318;52.068;5.188;2022-08-19T04:04:55;101428.0;;;17.31;95.63
68376;BME280;55318;52.068;5.188;2022-08-19T04:06:34;101435.0;;;17.3;94.88
68376;BME280;55318;52.068;5.188;2022-08-19T04:08:11;101440.0;;;17.34;96.23
68376;BME280;55318;52.068;5.188;2022-08-19T04:09:47;101433.0;;;17.3;96.72
68376;BME280;55318;52.068;5.188;2022-08-19T04:13:05;101434.0;;;17.34;96.71
68376;BME280;55318;52.068;5.188;2022-08-19T04:14:41;101435.0;;;17.34;96.31
68376;BME280;55318;52.068;5.188;2022-08-19T04:16:20;101430.0;;;17.36;96.21
68376;BME280;55318;52.068;5.188;2022-08-19T04:19:33;101426.0;;;17.39;97.18
68376;BME280;55318;52.068;5.188;2022-08-19T04:21:16;101428.0;;;17.36;97.09
68376;BME280;55318;52.068;5.188;2022-08-19T04:22:53;101426.0;;;17.34;97.07
68376;BME280;55318;52.068;5.188;2022-08-19T04:24:29;101426.0;;;17.31;96.52
68376;BME280;55318;52.068;5.188;2022-08-19T04:27:46;101423.0;;;17.3;96.4
68376;BME280;55318;52.068;5.188;2022-08-19T04:29:25;101418.0;;;17.27;96.09
68376;BME280;55318;52.068;5.188;2022-08-19T04:31:01;101416.0;;;17.34;95.77
68376;BME280;55318;52.068;5.188;2022-08-19T04:34:20;101413.0;;;17.34;95.61
68376;BME280;55318;52.068;5.188;2022-08-19T04:35:58;101412.0;;;17.34;95.89
68376;BME280;55318;52.068;5.188;2022-08-19T04:37:34;101412.0;;;17.36;96.75
68376;BME280;55318;52.068;5.188;2022-08-19T04:39:14;101415.0;;;17.43;95.99
68376;BME280;55318;52.068;5.188;2022-08-19T04:43:47;101417.0;;;17.36;96.07
68376;BME280;55318;52.068;5.188;2022-08-19T04:45:24;101419.0;;;17.34;95.67
68376;BME280;55318;52.068;5.188;2022-08-19T04:48:38;101421.0;;;17.32;97.44
68376;BME280;55318;52.068;5.188;2022-08-19T04:50:15;101426.0;;;17.48;96.7
68376;BME280;55318;52.068;5.188;2022-08-19T04:51:54;101427.0;;;17.43;96.9
68376;BME280;55318;52.068;5.188;2022-08-19T04:55:10;101426.0;;;17.34;97.25
68376;BME280;55318;52.068;5.188;2022-08-19T04:56:50;101431.0;;;17.31;96.68
68376;BME280;55318;52.068;5.188;2022-08-19T04:58:27;101433.0;;;17.28;96.52
68376;BME280;55318;52.068;5.188;2022-08-19T05:00:06;101437.0;;;17.2;96.53
68376;BME280;55318;52.068;5.188;2022-08-19T05:03:20;101439.0;;;17.18;96.8
68376;BME280;55318;52.068;5.188;2022-08-19T05:04:57;101442.0;;;17.18;97.19
68376;BME280;55318;52.068;5.188;2022-08-19T05:06:35;101445.0;;;17.2;96.6
68376;BME280;55318;52.068;5.188;2022-08-19T05:09:50;101446.0;;;17.18;97.17
68376;BME280;55318;52.068;5.188;2022-08-19T05:11:30;101449.0;;;17.18;97.03
68376;BME280;55318;52.068;5.188;2022-08-19T05:13:09;101450.0;;;17.2;97.57
68376;BME280;55318;52.068;5.188;2022-08-19T05:14:49;101450.0;;;17.25;97.54
68376;BME280;55318;52.068;5.188;2022-08-19T05:24:29;101455.0;;;17.45;97.65
68376;BME280;55318;52.068;5.188;2022-08-19T05:26:06;101462.0;;;17.47;98.54
68376;BME280;55318;52.068;5.188;2022-08-19T05:27:42;101462.0;;;17.53;98.49
68376;BME280;55318;52.068;5.188;2022-08-19T05:29:20;101460.0;;;17.66;98.68
68376;BME280;55318;52.068;5.188;2022-08-19T05:32:33;101460.0;;;17.73;98.59
68376;BME280;55318;52.068;5.188;2022-08-19T05:34:12;101462.0;;;17.78;99.02
68376;BME280;55318;52.068;5.188;2022-08-19T05:35:49;101453.0;;;17.88;98.56
68376;BME280;55318;52.068;5.188;2022-08-19T05:39:04;101456.0;;;17.96;99.3
68376;BME280;55318;52.068;5.188;2022-08-19T05:40:41;101450.0;;;18.03;98.62
68376;BME280;55318;52.068;5.188;2022-08-19T05:42:20;101452.0;;;18.09;99.24
68376;BME280;55318;52.068;5.188;2022-08-19T05:43:58;101450.0;;;18.18;99.15
68376;BME280;55318;52.068;5.188;2022-08-19T05:47:16;101453.0;;;18.28;99.12
68376;BME280;55318;52.068;5.188;2022-08-19T05:48:53;101456.0;;;18.36;99.5
68376;BME280;55318;52.068;5.188;2022-08-19T05:50:30;101455.0;;;18.47;98.96
68376;BME280;55318;52.068;5.188;2022-08-19T05:53:47;101453.0;;;18.57;98.99
68376;BME280;55318;52.068;5.188;2022-08-19T05:55:23;101455.0;;;18.68;99.02
68376;BME280;55318;52.068;5.188;2022-08-19T05:57:01;101449.0;;;18.77;98.99
68376;BME280;55318;52.068;5.188;2022-08-19T05:58:38;101447.0;;;18.87;99.22
68376;BME280;55318;52.068;5.188;2022-08-19T06:01:54;101446.0;;;18.98;98.93
68376;BME280;55318;52.068;5.188;2022-08-19T06:03:32;101445.0;;;19.11;98.85
68376;BME280;55318;52.068;5.188;2022-08-19T06:05:10;101448.0;;;19.3;99.08
68376;BME280;55318;52.068;5.188;2022-08-19T06:08:25;101446.0;;;19.47;98.17
68376;BME280;55318;52.068;5.188;2022-08-19T06:10:03;101451.0;;;19.59;97.83
68376;BME280;55318;52.068;5.188;2022-08-19T06:11:42;101451.0;;;19.7;97.28
68376;BME280;55318;52.068;5.188;2022-08-19T06:13:21;101452.0;;;19.77;97.59
68376;BME280;55318;52.068;5.188;2022-08-19T06:16:37;101446.0;;;19.95;97.09
68376;BME280;55318;52.068;5.188;2022-08-19T06:18:14;101452.0;;;19.95;97.75
68376;BME280;55318;52.068;5.188;2022-08-19T06:19:52;101455.0;;;20.02;96.61
68376;BME280;55318;52.068;5.188;2022-08-19T06:23:06;101458.0;;;20.18;95.9
68376;BME280;55318;52.068;5.188;2022-08-19T06:24:43;101458.0;;;20.25;95.31
68376;BME280;55318;52.068;5.188;2022-08-19T06:26:20;101453.0;;;20.27;95.34
68376;BME280;55318;52.068;5.188;2022-08-19T06:27:57;101455.0;;;20.31;94.7
68376;BME280;55318;52.068;5.188;2022-08-19T06:31:14;101452.0;;;20.36;94.3
68376;BME280;55318;52.068;5.188;2022-08-19T06:32:52;101455.0;;;20.31;94.42
68376;BME280;55318;52.068;5.188;2022-08-19T06:34:32;101461.0;;;20.27;95.55
68376;BME280;55318;52.068;5.188;2022-08-19T06:36:16;101459.0;;;20.38;94.5
68376;BME280;55318;52.068;5.188;2022-08-19T06:39:33;101459.0;;;20.34;95.16
68376;BME280;55318;52.068;5.188;2022-08-19T06:41:14;101456.0;;;20.43;94.92
68376;BME280;55318;52.068;5.188;2022-08-19T06:42:50;101458.0;;;20.41;95.46
68376;BME280;55318;52.068;5.188;2022-08-19T06:46:11;101462.0;;;20.45;94.81
68376;BME280;55318;52.068;5.188;2022-08-19T06:47:48;101460.0;;;20.52;94.66
68376;BME280;55318;52.068;5.188;2022-08-19T06:49:27;101462.0;;;20.52;94.72
68376;BME280;55318;52.068;5.188;2022-08-19T06:51:08;101457.0;;;20.49;94.59
68376;BME280;55318;52.068;5.188;2022-08-19T06:54:20;101457.0;;;20.58;93.85
68376;BME280;55318;52.068;5.188;2022-08-19T06:56:00;101461.0;;;20.66;93.33
68376;BME280;55318;52.068;5.188;2022-08-19T06:57:36;101461.0;;;20.68;92.37
68376;BME280;55318;52.068;5.188;2022-08-19T06:59:15;101463.0;;;20.7;92.21
68376;BME280;55318;52.068;5.188;2022-08-19T07:02:40;101464.0;;;20.75;92.07
68376;BME280;55318;52.068;5.188;2022-08-19T07:04:18;101465.0;;;20.72;91.91
68376;BME280;55318;52.068;5.188;2022-08-19T07:05:57;101464.0;;;20.77;91.13
68376;BME280;55318;52.068;5.188;2022-08-19T07:07:34;101464.0;;;20.8;90.61
68376;BME280;55318;52.068;5.188;2022-08-19T07:10:53;101461.0;;;20.88;90.82
68376;BME280;55318;52.068;5.188;2022-08-19T07:12:31;101463.0;;;20.94;90.28
68376;BME280;55318;52.068;5.188;2022-08-19T07:14:07;101466.0;;;20.97;89.92
68376;BME280;55318;52.068;5.188;2022-08-19T07:17:23;101469.0;;;21.07;89.59
68376;BME280;55318;52.068;5.188;2022-08-19T07:19:00;101474.0;;;21.13;88.46
68376;BME280;55318;52.068;5.188;2022-08-19T07:20:37;101475.0;;;21.19;90.57
68376;BME280;55318;52.068;5.188;2022-08-19T07:22:15;101478.0;;;21.24;88.77
68376;BME280;55318;52.068;5.188;2022-08-19T07:25:28;101480.0;;;21.35;89.85
68376;BME280;55318;52.068;5.188;2022-08-19T07:27:05;101480.0;;;21.53;87.36
68376;BME280;55318;52.068;5.188;2022-08-19T07:28:43;101483.0;;;21.56;87.14
68376;BME280;55318;52.068;5.188;2022-08-19T07:32:00;101480.0;;;21.65;86.18
68376;BME280;55318;52.068;5.188;2022-08-19T07:33:38;101480.0;;;21.58;87.19
68376;BME280;55318;52.068;5.188;2022-08-19T07:35:14;101480.0;;;21.69;86.93
68376;BME280;55318;52.068;5.188;2022-08-19T07:36:51;101477.0;;;21.92;86.39
68376;BME280;55318;52.068;5.188;2022-08-19T07:40:06;101468.0;;;22.13;85.02
68376;BME280;55318;52.068;5.188;2022-08-19T07:41:44;101473.0;;;22.34;84.51
68376;BME280;55318;52.068;5.188;2022-08-19T07:43:25;101474.0;;;22.42;84.99
68376;BME280;55318;52.068;5.188;2022-08-19T07:46:46;101482.0;;;22.63;82.63
68376;BME280;55318;52.068;5.188;2022-08-19T07:48:28;101484.0;;;22.68;82.13
68376;BME280;55318;52.068;5.188;2022-08-19T07:50:09;101489.0;;;22.86;80.37
68376;BME280;55318;52.068;5.188;2022-08-19T07:51:49;101493.0;;;22.96;79.55
68376;BME280;55318;52.068;5.188;2022-08-19T07:55:05;101497.0;;;22.87;81.99
68376;BME280;55318;52.068;5.188;2022-08-19T07:58:20;101498.0;;;22.79;80.61
68376;BME280;55318;52.068;5.188;2022-08-19T07:59:58;101495.0;;;22.6;81.05
68376;BME280;55318;52.068;5.188;2022-08-19T08:03:15;101498.0;;;22.6;80.97
68376;BME280;55318;52.068;5.188;2022-08-19T08:09:32;101503.0;;;22.82;81.19
68376;BME280;55318;52.068;5.188;2022-08-19T08:11:09;101506.0;;;22.89;80.16
68376;BME280;55318;52.068;5.188;2022-08-19T08:12:46;101516.0;;;22.85;79.69
68376;BME280;55318;52.068;5.188;2022-08-19T08:16:03;101514.0;;;22.63;80.86
68376;BME280;55318;52.068;5.188;2022-08-19T08:17:40;101518.0;;;22.58;80.52
68376;BME280;55318;52.068;5.188;2022-08-19T08:19:20;101520.0;;;22.65;79.78
68376;BME280;55318;52.068;5.188;2022-08-19T08:20:57;101522.0;;;22.56;81.33
68376;BME280;55318;52.068;5.188;2022-08-19T08:25:17;101517.0;;;22.43;82.56
68376;BME280;55318;52.068;5.188;2022-08-19T08:28:35;101513.0;;;22.42;82.28
68376;BME280;55318;52.068;5.188;2022-08-19T08:30:15;101517.0;;;22.6;82.38
68376;BME280;55318;52.068;5.188;2022-08-19T08:31:54;101517.0;;;22.69;83.5
68376;BME280;55318;52.068;5.188;2022-08-19T08:33:30;101522.0;;;22.79;81.74
68376;BME280;55318;52.068;5.188;2022-08-19T08:36:48;101523.0;;;22.9;80.89
68376;BME280;55318;52.068;5.188;2022-08-19T08:40:03;101524.0;;;23.17;78.36
68376;BME280;55318;52.068;5.188;2022-08-19T08:41:46;101525.0;;;23.21;80.11
68376;BME280;55318;52.068;5.188;2022-08-19T08:45:17;101516.0;;;23.55;78.91
68376;BME280;55318;52.068;5.188;2022-08-19T08:46:57;101510.0;;;23.91;76.09
68376;BME280;55318;52.068;5.188;2022-08-19T08:48:42;101512.0;;;24.0;75.34
68376;BME280;55318;52.068;5.188;2022-08-19T08:50:24;101518.0;;;24.12;76.97
68376;BME280;55318;52.068;5.188;2022-08-19T08:53:49;101518.0;;;24.47;75.63
68376;BME280;55318;52.068;5.188;2022-08-19T08:55:28;101522.0;;;24.8;73.08
68376;BME280;55318;52.068;5.188;2022-08-19T08:57:11;101523.0;;;25.11;72.42
68376;BME280;55318;52.068;5.188;2022-08-19T08:58:59;101523.0;;;25.27;69.72
68376;BME280;55318;52.068;5.188;2022-08-19T09:00:40;101523.0;;;25.58;69.83
68376;BME280;55318;52.068;5.188;2022-08-19T09:03:56;101518.0;;;25.67;68.61
68376;BME280;55318;52.068;5.188;2022-08-19T09:05:40;101524.0;;;25.39;67.75
68376;BME280;55318;52.068;5.188;2022-08-19T09:07:37;101520.0;;;25.28;68.22
68376;BME280;55318;52.068;5.188;2022-08-19T09:09:34;101526.0;;;25.48;71.11
68376;BME280;55318;52.068;5.188;2022-08-19T09:11:19;101523.0;;;25.54;67.91
68376;BME280;55318;52.068;5.188;2022-08-19T09:13:14;101528.0;;;25.45;67.87
68376;BME280;55318;52.068;5.188;2022-08-19T09:16:42;101531.0;;;25.42;68.66
68376;BME280;55318;52.068;5.188;2022-08-19T09:18:18;101530.0;;;25.3;69.02
68376;BME280;55318;52.068;5.188;2022-08-19T09:19:58;101533.0;;;25.26;68.69
68376;BME280;55318;52.068;5.188;2022-08-19T09:21:35;101534.0;;;25.2;68.94
68376;BME280;55318;52.068;5.188;2022-08-19T09:24:48;101528.0;;;25.12;68.36
68376;BME280;55318;52.068;5.188;2022-08-19T09:26:25;101527.0;;;24.84;68.81
68376;BME280;55318;52.068;5.188;2022-08-19T09:28:03;101536.0;;;25.12;72.27
68376;BME280;55318;52.068;5.188;2022-08-19T09:31:17;101531.0;;;24.96;68.33
68376;BME280;55318;52.068;5.188;2022-08-19T09:33:01;101532.0;;;24.89;68.95
68376;BME280;55318;52.068;5.188;2022-08-19T09:34:37;101533.0;;;24.85;69.22
68376;BME280;55318;52.068;5.188;2022-08-19T09:36:16;101532.0;;;24.86;70.8
68376;BME280;55318;52.068;5.188;2022-08-19T09:39:31;101535.0;;;24.68;69.83
68376;BME280;55318;52.068;5.188;2022-08-19T09:41:10;101538.0;;;24.63;70.99
68376;BME280;55318;52.068;5.188;2022-08-19T09:42:48;101537.0;;;24.72;72.27
68376;BME280;55318;52.068;5.188;2022-08-19T09:46:01;101539.0;;;24.98;71.08
68376;BME280;55318;52.068;5.188;2022-08-19T09:47:38;101541.0;;;25.19;71.66
68376;BME280;55318;52.068;5.188;2022-08-19T09:49:15;101538.0;;;25.33;70.38
68376;BME280;55318;52.068;5.188;2022-08-19T09:50:52;101539.0;;;25.26;69.39
68376;BME280;55318;52.068;5.188;2022-08-19T09:54:04;101541.0;;;25.28;69.69
68376;BME280;55318;52.068;5.188;2022-08-19T09:55:41;101539.0;;;25.22;68.61
68376;BME280;55318;52.068;5.188;2022-08-19T09:57:18;101538.0;;;25.22;69.8
68376;BME280;55318;52.068;5.188;2022-08-19T10:00:31;101539.0;;;25.38;69.63
68376;BME280;55318;52.068;5.188;2022-08-19T10:02:10;101539.0;;;25.39;70.23
68376;BME280;55318;52.068;5.188;2022-08-19T10:03:48;101540.0;;;25.42;70.44
68376;BME280;55318;52.068;5.188;2022-08-19T10:05:58;101533.0;;;25.38;69.44
68376;BME280;55318;52.068;5.188;2022-08-19T10:07:35;101533.0;;;25.19;69.74
68376;BME280;55318;52.068;5.188;2022-08-19T10:10:50;101532.0;;;25.16;70.75
68376;BME280;55318;52.068;5.188;2022-08-19T10:12:28;101531.0;;;25.03;71.91
68376;BME280;55318;52.068;5.188;2022-08-19T10:14:06;101535.0;;;25.01;70.89
68376;BME280;55318;52.068;5.188;2022-08-19T10:17:20;101531.0;;;24.93;71.77
68376;BME280;55318;52.068;5.188;2022-08-19T10:18:57;101530.0;;;24.89;72.05
68376;BME280;55318;52.068;5.188;2022-08-19T10:20:35;101534.0;;;25.14;71.89
68376;BME280;55318;52.068;5.188;2022-08-19T10:22:14;101534.0;;;25.11;70.75
68376;BME280;55318;52.068;5.188;2022-08-19T10:25:32;101532.0;;;25.07;72.61
68376;BME280;55318;52.068;5.188;2022-08-19T10:27:09;101525.0;;;25.02;71.12
68376;BME280;55318;52.068;5.188;2022-08-19T10:28:46;101528.0;;;25.07;72.31
68376;BME280;55318;52.068;5.188;2022-08-19T10:32:01;101530.0;;;25.36;71.53
68376;BME280;55318;52.068;5.188;2022-08-19T10:33:38;101530.0;;;25.53;69.73
68376;BME280;55318;52.068;5.188;2022-08-19T10:35:15;101531.0;;;25.82;72.52
68376;BME280;55318;52.068;5.188;2022-08-19T10:36:52;101532.0;;;26.02;71.44
68376;BME280;55318;52.068;5.188;2022-08-19T10:40:08;101523.0;;;25.96;68.86
68376;BME280;55318;52.068;5.188;2022-08-19T10:41:44;101524.0;;;25.86;68.73
68376;BME280;55318;52.068;5.188;2022-08-19T10:43:20;101530.0;;;25.84;69.75
68376;BME280;55318;52.068;5.188;2022-08-19T10:46:36;101524.0;;;25.93;69.39
68376;BME280;55318;52.068;5.188;2022-08-19T10:48:16;101522.0;;;26.15;70.27
68376;BME280;55318;52.068;5.188;2022-08-19T10:52:47;101525.0;;;26.26;68.1
68376;BME280;55318;52.068;5.188;2022-08-19T10:56:51;101521.0;;;26.58;68.99
68376;BME280;55318;52.068;5.188;2022-08-19T10:58:27;101531.0;;;26.79;66.13
68376;BME280;55318;52.068;5.188;2022-08-19T11:00:04;101528.0;;;26.79;66.47
68376;BME280;55318;52.068;5.188;2022-08-19T11:03:19;101523.0;;;27.08;67.34
68376;BME280;55318;52.068;5.188;2022-08-19T11:04:56;101526.0;;;27.02;66.31
68376;BME280;55318;52.068;5.188;2022-08-19T11:06:32;101525.0;;;26.95;64.94
68376;BME280;55318;52.068;5.188;2022-08-19T11:08:11;101521.0;;;27.06;66.05
68376;BME280;55318;52.068;5.188;2022-08-19T11:11:24;101522.0;;;27.22;66.27
68376;BME280;55318;52.068;5.188;2022-08-19T11:13:00;101522.0;;;27.36;64.94
68376;BME280;55318;52.068;5.188;2022-08-19T11:14:36;101526.0;;;27.24;63.65
68376;BME280;55318;52.068;5.188;2022-08-19T11:17:54;101523.0;;;26.93;64.49
68376;BME280;55318;52.068;5.188;2022-08-19T11:19:32;101521.0;;;26.81;65.99
68376;BME280;55318;52.068;5.188;2022-08-19T11:21:12;101515.0;;;26.64;65.59
68376;BME280;55318;52.068;5.188;2022-08-19T11:22:51;101512.0;;;26.61;66.42
68376;BME280;55318;52.068;5.188;2022-08-19T11:26:04;101505.0;;;26.47;66.6
68376;BME280;55318;52.068;5.188;2022-08-19T11:27:42;101503.0;;;26.44;67.98
68376;BME280;55318;52.068;5.188;2022-08-19T11:29:20;101506.0;;;26.55;67.28